Time;durP1;ratioP1;P1;durP2;ratioP2;P2;SDS_P1;SDS_P2;PMS_P1;PMS_P2;Temp;Humidity;BMP_temperature;BMP_pressure;BME280_temperature;BME280_humidity;BME280_pressure;Samples;Min_cycle;Max_cycle;Signal;HPM_P1;HPM_P2
2022/11/03 00:00:06;;;;;;;12.05;2.03;;;12.20;95.20;;;;;;5028969;28;20104;-63
2022/11/03 00:02:32;;;;;;;11.18;2.53;;;12.20;95.20;;;;;;5028410;28;20029;-63
2022/11/03 00:06:03;;;;;;;14.65;2.55;;;12.20;95.20;;;;;;5028534;28;20018;-63
2022/11/03 00:07:43;;;;;;;15.85;2.30;;;12.20;95.10;;;;;;5028261;28;20400;-63
2022/11/03 00:10:08;;;;;;;13.88;2.28;;;12.20;95.20;;;;;;5028833;28;20030;-63
2022/11/03 00:12:34;;;;;;;13.02;2.63;;;12.20;95.20;;;;;;5027842;28;20036;-63
2022/11/03 00:14:59;;;;;;;16.85;3.67;;;12.20;95.20;;;;;;5028654;28;20095;-63
2022/11/03 00:17:25;;;;;;;12.00;2.40;;;12.20;95.10;;;;;;5025968;28;20041;-63
2022/11/03 00:19:50;;;;;;;12.98;2.35;;;12.20;95.20;;;;;;5024150;28;20025;-64
2022/11/03 00:22:16;;;;;;;12.25;2.55;;;12.20;95.10;;;;;;5027423;28;20049;-63
2022/11/03 00:24:41;;;;;;;12.05;2.20;;;12.20;95.00;;;;;;5028033;28;20083;-63
2022/11/03 00:27:07;;;;;;;10.27;2.03;;;12.20;94.80;;;;;;5026470;28;20033;-63
2022/11/03 00:29:32;;;;;;;12.38;2.60;;;12.30;94.80;;;;;;5025287;28;20426;-63
2022/11/03 00:31:58;;;;;;;12.57;2.03;;;12.30;94.70;;;;;;5026128;28;20033;-63
2022/11/03 00:34:23;;;;;;;8.80;2.13;;;12.30;94.60;;;;;;5026082;28;20478;-63
2022/11/03 00:36:49;;;;;;;11.55;2.38;;;12.30;94.70;;;;;;5023565;28;20021;-63
2022/11/03 00:39:14;;;;;;;13.38;2.65;;;12.30;94.60;;;;;;5028435;28;20029;-63
2022/11/03 00:41:40;;;;;;;14.82;1.70;;;12.30;94.70;;;;;;5026385;28;20477;-63
2022/11/03 00:44:05;;;;;;;11.25;2.45;;;12.30;94.80;;;;;;5025763;28;20033;-64
2022/11/03 00:46:34;;;;;;;9.30;2.40;;;12.30;94.80;;;;;;5016006;28;20065;-64
2022/11/03 00:49:00;;;;;;;13.30;2.40;;;12.30;94.70;;;;;;5031317;28;20037;-64
2022/11/03 00:51:32;;;;;;;12.85;2.33;;;12.30;94.70;;;;;;5032494;28;20017;-63
2022/11/03 00:54:00;;;;;;;14.73;2.42;;;12.30;94.70;;;;;;5030975;28;20489;-63
2022/11/03 00:56:27;;;;;;;11.77;2.20;;;12.30;94.70;;;;;;5032569;28;20370;-64
2022/11/03 00:58:54;;;;;;;12.15;2.22;;;12.30;94.70;;;;;;5030914;28;20026;-63
2022/11/03 01:01:25;;;;;;;17.92;3.05;;;12.30;95.00;;;;;;5029031;28;20045;-63
2022/11/03 01:06:49;;;;;;;12.15;2.20;;;12.30;94.90;;;;;;5031670;28;20083;-64
2022/11/03 01:09:16;;;;;;;8.98;1.98;;;12.30;95.00;;;;;;5032288;28;20022;-63
2022/11/03 01:11:49;;;;;;;11.90;2.25;;;12.30;95.00;;;;;;5030583;28;20079;-63
2022/11/03 01:14:15;;;;;;;12.27;2.35;;;12.30;95.00;;;;;;5046013;28;20029;-64
2022/11/03 01:16:41;;;;;;;11.88;2.63;;;12.30;95.10;;;;;;5031520;28;20025;-63
2022/11/03 01:19:07;;;;;;;12.07;2.67;;;12.30;95.20;;;;;;5030958;28;20153;-63
2022/11/03 01:21:32;;;;;;;11.57;2.60;;;12.30;95.10;;;;;;5030161;28;20707;-64
2022/11/03 01:24:03;;;;;;;11.68;2.05;;;12.30;95.30;;;;;;5031760;28;20059;-64
2022/11/03 01:26:29;;;;;;;10.05;2.15;;;12.30;95.30;;;;;;5031131;28;20504;-64
2022/11/03 01:28:54;;;;;;;12.80;1.77;;;12.30;95.30;;;;;;5029074;28;20048;-63
2022/11/03 01:31:24;;;;;;;10.00;1.98;;;12.30;95.40;;;;;;5030276;28;20490;-64
2022/11/03 01:33:51;;;;;;;11.40;1.98;;;12.40;95.40;;;;;;5029927;28;20556;-63
2022/11/03 01:36:17;;;;;;;10.30;1.90;;;12.30;95.60;;;;;;5029196;28;20041;-63
2022/11/03 01:38:42;;;;;;;13.88;2.15;;;12.30;95.50;;;;;;5031411;28;20056;-64
2022/11/03 01:41:12;;;;;;;9.57;2.03;;;12.30;95.60;;;;;;5027608;28;20018;-64
2022/11/03 01:43:39;;;;;;;15.05;2.20;;;12.30;95.60;;;;;;5031661;28;20032;-64
2022/11/03 01:46:18;;;;;;;18.88;2.25;;;12.30;95.70;;;;;;5026276;28;20485;-64
2022/11/03 01:49:10;;;;;;;10.23;1.83;;;12.30;95.80;;;;;;5029894;28;20029;-64
2022/11/03 01:51:36;;;;;;;12.60;1.80;;;12.30;95.70;;;;;;5026550;28;20025;-63
2022/11/03 01:54:08;;;;;;;7.15;1.60;;;12.30;95.80;;;;;;5025144;28;20504;-65
2022/11/03 01:56:38;;;;;;;14.95;2.15;;;12.30;95.90;;;;;;5025691;28;20033;-63
2022/11/03 01:59:04;;;;;;;12.15;2.17;;;12.30;96.00;;;;;;5029595;28;20025;-64
2022/11/03 02:01:30;;;;;;;15.32;2.00;;;12.30;96.10;;;;;;5031295;28;20037;-63
2022/11/03 02:04:06;;;;;;;11.05;2.53;;;12.20;96.10;;;;;;5026757;28;20497;-64
2022/11/03 02:06:32;;;;;;;11.32;2.08;;;12.20;96.20;;;;;;5026289;28;20021;-64
2022/11/03 02:09:05;;;;;;;10.75;1.98;;;12.20;96.30;;;;;;5031151;28;20055;-63
2022/11/03 02:14:17;;;;;;;11.00;2.35;;;12.20;96.20;;;;;;5028863;28;20488;-64
2022/11/03 02:16:55;;;;;;;13.27;2.53;;;12.20;96.20;;;;;;5027442;28;20029;-64
2022/11/03 02:19:43;;;;;;;10.27;1.92;;;12.20;96.30;;;;;;5025970;28;20084;-63
2022/11/03 02:22:24;;;;;;;12.30;2.92;;;12.20;96.40;;;;;;5026954;28;20489;-64
2022/11/03 02:25:01;;;;;;;10.10;2.15;;;12.20;96.50;;;;;;5031026;28;20026;-63
2022/11/03 02:27:27;;;;;;;11.40;1.83;;;12.20;96.50;;;;;;5025192;28;20116;-63
2022/11/03 02:29:53;;;;;;;16.90;3.28;;;12.20;96.60;;;;;;5028082;28;20109;-64
2022/11/03 02:32:21;;;;;;;12.35;1.95;;;12.10;96.70;;;;;;5031084;28;20025;-64
2022/11/03 02:34:48;;;;;;;11.00;2.15;;;12.10;96.70;;;;;;5030284;28;20116;-64
2022/11/03 02:37:20;;;;;;;8.70;1.80;;;12.10;96.80;;;;;;5027816;28;20021;-64
2022/11/03 02:39:51;;;;;;;9.40;1.80;;;12.10;97.10;;;;;;5029193;28;20018;-63
2022/11/03 02:42:18;;;;;;;9.48;2.13;;;12.10;96.90;;;;;;5029172;28;20049;-64
2022/11/03 02:44:46;;;;;;;12.52;2.63;;;12.10;96.90;;;;;;5029873;28;20069;-63
2022/11/03 02:47:13;;;;;;;15.60;3.00;;;12.00;97.00;;;;;;5027906;28;20029;-64
2022/11/03 02:49:46;;;;;;;13.27;2.95;;;12.00;97.20;;;;;;5026687;28;20057;-63
2022/11/03 02:52:30;;;;;;;14.50;1.80;;;12.00;97.30;;;;;;5025681;28;20028;-64
2022/11/03 02:54:56;;;;;;;13.75;2.88;;;11.90;97.40;;;;;;5030253;28;20030;-63
2022/11/03 02:57:26;;;;;;;12.80;2.03;;;11.90;97.60;;;;;;5030173;28;20389;-63
2022/11/03 02:59:57;;;;;;;;;;;11.90;97.70;;;;;;5030516;28;20028;-64
2022/11/03 03:02:31;;;;;;;11.98;1.92;;;11.80;97.70;;;;;;5026516;28;19909;-63
2022/11/03 03:05:00;;;;;;;13.95;2.40;;;11.80;97.90;;;;;;5030962;28;20517;-63
2022/11/03 03:07:33;;;;;;;9.73;2.67;;;11.80;98.10;;;;;;5029264;28;20033;-63
2022/11/03 03:10:09;;;;;;;14.45;2.63;;;11.80;98.20;;;;;;5024952;28;20029;-63
2022/11/03 03:12:39;;;;;;;9.57;1.98;;;11.80;98.30;;;;;;5026723;28;20098;-63
2022/11/03 03:15:06;;;;;;;9.10;2.38;;;11.80;98.40;;;;;;5025192;28;20096;-63
2022/11/03 03:17:53;;;;;;;15.60;2.70;;;11.80;98.50;;;;;;5026791;28;20111;-63
2022/11/03 03:20:25;;;;;;;10.02;1.80;;;11.80;98.60;;;;;;5025994;28;20057;-63
2022/11/03 03:23:01;;;;;;;10.40;1.88;;;11.80;98.70;;;;;;5022371;28;20021;-63
2022/11/03 03:25:48;;;;;;;9.88;2.67;;;11.80;98.80;;;;;;5027180;28;20481;-64
2022/11/03 03:28:25;;;;;;;13.45;3.03;;;11.80;98.80;;;;;;5022341;28;20520;-63
2022/11/03 03:30:53;;;;;;;14.15;2.30;;;11.80;99.00;;;;;;5024863;28;20025;-63
2022/11/03 03:33:19;;;;;;;13.85;2.47;;;11.80;99.10;;;;;;5024705;28;20508;-63
2022/11/03 03:35:49;;;;;;;13.65;2.05;;;11.80;99.30;;;;;;5026434;28;20033;-63
2022/11/03 03:38:25;;;;;;;9.90;2.03;;;11.80;99.30;;;;;;5026955;28;20036;-63
2022/11/03 03:40:54;;;;;;;11.18;2.33;;;11.90;99.30;;;;;;5036214;28;20021;-63
2022/11/03 03:43:22;;;;;;;12.70;3.10;;;11.80;99.30;;;;;;5026367;28;20048;-63
2022/11/03 03:45:51;;;;;;;12.05;1.80;;;11.80;99.30;;;;;;5026618;28;20071;-64
2022/11/03 03:48:17;;;;;;;12.77;2.53;;;11.80;99.30;;;;;;5028037;28;20108;-63
2022/11/03 03:50:45;;;;;;;13.60;3.33;;;11.80;99.40;;;;;;5026092;28;20140;-64
2022/11/03 03:53:12;;;;;;;13.43;2.45;;;11.80;99.60;;;;;;5026447;28;20036;-64
2022/11/03 03:55:45;;;;;;;11.65;1.88;;;11.80;99.60;;;;;;5027692;28;20057;-63
2022/11/03 03:58:13;;;;;;;13.88;2.28;;;11.80;99.60;;;;;;5023338;28;20108;-63
2022/11/03 04:00:41;;;;;;;13.23;2.22;;;11.80;99.60;;;;;;5013999;28;20026;-63
2022/11/03 04:03:24;;;;;;;14.32;2.38;;;11.80;99.70;;;;;;5020134;28;20028;-63
2022/11/03 04:05:52;;;;;;;7.43;2.15;;;11.80;99.80;;;;;;5028951;28;20116;-63
2022/11/03 04:08:17;;;;;;;17.85;2.50;;;11.80;99.90;;;;;;5028366;28;20489;-64
2022/11/03 04:22:15;;;;;;;11.90;1.95;;;11.80;99.90;;;;;;5023542;28;20464;-63
2022/11/03 04:24:26;;;;;;;11.00;1.90;;;11.90;99.90;;;;;;5028968;28;20028;-64
2022/11/03 04:27:07;;;;;;;9.80;2.53;;;11.90;99.90;;;;;;5023550;28;20028;-64
2022/11/03 04:29:32;;;;;;;8.55;1.75;;;12.00;99.90;;;;;;5026069;28;20543;-64
2022/11/03 04:31:58;;;;;;;14.07;2.65;;;11.90;99.90;;;;;;5028774;28;20021;-63
2022/11/03 04:34:24;;;;;;;11.98;1.80;;;12.00;99.90;;;;;;5028403;28;20036;-64
2022/11/03 04:36:49;;;;;;;9.85;2.25;;;12.00;99.90;;;;;;5025748;28;20030;-64
2022/11/03 04:39:18;;;;;;;10.02;2.08;;;12.00;99.90;;;;;;5024238;28;20025;-63
2022/11/03 04:41:44;;;;;;;14.45;2.97;;;12.00;99.90;;;;;;5028219;28;20524;-63
2022/11/03 04:44:15;;;;;;;10.35;1.95;;;12.00;99.90;;;;;;5025801;28;20104;-63
2022/11/03 04:46:41;;;;;;;9.93;1.73;;;12.10;99.90;;;;;;5025725;28;20042;-64
2022/11/03 04:49:11;;;;;;;12.63;2.17;;;12.10;99.90;;;;;;5023265;28;20486;-64
2022/11/03 04:51:37;;;;;;;5.80;1.55;;;12.20;99.90;;;;;;5025920;28;20030;-64
2022/11/03 04:54:40;;;;;;;12.63;2.25;;;12.20;99.90;;;;;;5025845;28;20041;-63
2022/11/03 04:57:13;;;;;;;13.38;2.90;;;12.20;99.90;;;;;;5004420;28;20556;-63
2022/11/03 04:59:40;;;;;;;9.57;1.98;;;12.30;99.90;;;;;;5020422;28;20049;-64
2022/11/03 05:02:18;;;;;;;10.60;1.98;;;12.30;99.90;;;;;;5025772;28;20071;-64
2022/11/03 05:04:44;;;;;;;9.32;1.90;;;12.30;99.90;;;;;;5023495;28;20485;-63
2022/11/03 05:07:31;;;;;;;11.63;1.83;;;12.40;99.90;;;;;;5039375;28;20112;-64
2022/11/03 05:09:57;;;;;;;10.60;1.88;;;12.40;99.90;;;;;;5024440;28;20025;-63
2022/11/03 05:12:22;;;;;;;10.48;1.85;;;12.40;99.90;;;;;;5028361;28;20464;-63
2022/11/03 05:14:48;;;;;;;8.48;1.70;;;12.40;99.90;;;;;;5024104;28;20028;-64
2022/11/03 05:17:26;;;;;;;12.43;2.30;;;12.40;99.90;;;;;;5028053;28;20053;-63
2022/11/03 05:20:01;;;;;;;8.20;2.58;;;12.40;99.90;;;;;;5027001;28;20033;-63
2022/11/03 05:22:36;;;;;;;8.68;1.95;;;12.40;99.90;;;;;;5026866;28;20036;-63
2022/11/03 05:25:26;;;;;;;7.03;1.40;;;12.40;99.90;;;;;;5025673;28;20030;-63
2022/11/03 05:27:51;;;;;;;10.38;2.38;;;12.30;99.90;;;;;;5023199;28;20068;-63
2022/11/03 05:30:17;;;;;;;10.15;2.30;;;12.30;99.90;;;;;;5026024;28;20041;-63
2022/11/03 05:32:42;;;;;;;11.60;3.58;;;12.30;99.90;;;;;;5027339;28;20043;-63
2022/11/03 05:35:20;;;;;;;10.43;2.15;;;12.30;99.90;;;;;;5026914;28;20021;-63
2022/11/03 05:37:45;;;;;;;9.73;2.00;;;12.30;99.90;;;;;;5031447;28;20017;-63
2022/11/03 05:40:19;;;;;;;8.57;1.92;;;12.30;99.90;;;;;;5032194;28;20569;-64
2022/11/03 05:42:45;;;;;;;13.63;2.15;;;12.30;99.90;;;;;;5031450;28;20481;-63
2022/11/03 05:45:19;;;;;;;14.13;2.35;;;12.20;99.90;;;;;;5028528;28;20497;-63
2022/11/03 05:47:46;;;;;;;12.05;2.10;;;12.20;99.90;;;;;;5031029;28;20105;-63
2022/11/03 05:50:33;;;;;;;16.55;3.08;;;12.20;99.90;;;;;;5026600;28;20029;-63
2022/11/03 05:53:24;;;;;;;10.57;2.08;;;12.20;99.90;;;;;;5027709;28;20064;-63
2022/11/03 05:55:49;;;;;;;9.40;2.00;;;12.20;99.90;;;;;;5028757;28;20087;-63
2022/11/03 05:58:22;;;;;;;11.77;3.13;;;12.20;99.90;;;;;;5031304;28;20025;-63
2022/11/03 06:00:47;;;;;;;7.47;1.80;;;12.20;99.90;;;;;;5031118;28;20024;-63
2022/11/03 06:03:28;;;;;;;11.65;2.20;;;12.20;99.90;;;;;;5031273;28;20025;-63
2022/11/03 06:05:55;;;;;;;13.35;3.03;;;12.20;99.90;;;;;;5031052;28;20068;-63
2022/11/03 06:08:24;;;;;;;10.60;2.80;;;12.10;99.90;;;;;;5028378;28;20037;-63
2022/11/03 06:10:53;;;;;;;7.70;2.60;;;12.20;99.90;;;;;;5028637;28;20106;-64
2022/11/03 06:13:32;;;;;;;12.57;2.67;;;12.20;99.90;;;;;;5026984;28;20260;-63
2022/11/03 06:16:05;;;;;;;10.85;2.65;;;12.20;99.90;;;;;;5029779;28;20099;-64
2022/11/03 06:18:36;;;;;;;10.32;2.13;;;12.10;99.90;;;;;;5030644;28;20033;-63
2022/11/03 06:21:24;;;;;;;13.95;3.25;;;12.10;99.90;;;;;;5030820;28;20021;-63
2022/11/03 06:23:53;;;;;;;14.43;3.10;;;12.10;99.90;;;;;;5028141;28;20473;-64
2022/11/03 06:26:23;;;;;;;7.78;2.53;;;12.10;99.90;;;;;;5030949;28;20029;-64
2022/11/03 06:28:50;;;;;;;8.18;1.92;;;12.10;99.90;;;;;;5027916;28;20033;-64
2022/11/03 06:31:36;;;;;;;17.00;2.83;;;12.10;99.90;;;;;;5032085;28;20044;-63
2022/11/03 06:34:02;;;;;;;11.50;2.35;;;12.10;99.90;;;;;;5034420;28;20386;-63
2022/11/03 06:36:34;;;;;;;13.05;2.50;;;12.10;99.90;;;;;;5034019;28;20482;-63
2022/11/03 06:39:08;;;;;;;16.88;2.58;;;12.10;99.90;;;;;;5034403;28;20032;-63
2022/11/03 06:41:36;;;;;;;15.07;2.85;;;12.10;99.90;;;;;;5034218;28;20021;-63
2022/11/03 06:44:16;;;;;;;16.85;2.70;;;12.10;99.90;;;;;;5034330;28;20389;-64
2022/11/03 06:46:42;;;;;;;9.38;2.10;;;12.10;99.90;;;;;;5028591;28;20506;-63
2022/11/03 06:49:28;;;;;;;7.72;2.38;;;12.10;99.90;;;;;;5033923;28;20048;-63
2022/11/03 06:51:55;;;;;;;7.68;2.53;;;12.10;99.90;;;;;;5021736;28;20099;-63
2022/11/03 06:54:21;;;;;;;11.48;3.53;;;12.10;99.90;;;;;;5033877;28;20096;-63
2022/11/03 06:56:47;;;;;;;18.38;2.35;;;12.10;99.90;;;;;;5034075;28;20562;-63
2022/11/03 06:59:14;;;;;;;13.07;2.20;;;12.10;99.90;;;;;;5033760;28;20057;-64
2022/11/03 07:01:40;;;;;;;13.77;3.22;;;12.10;99.90;;;;;;5032664;28;20029;-63
2022/11/03 07:04:20;;;;;;;15.32;2.25;;;12.10;99.90;;;;;;5033616;28;20037;-63
2022/11/03 07:06:47;;;;;;;10.68;2.13;;;12.10;99.90;;;;;;5033700;28;20032;-63
2022/11/03 07:09:18;;;;;;;11.80;2.85;;;12.10;99.90;;;;;;5033564;28;20265;-63
2022/11/03 07:11:50;;;;;;;9.60;2.05;;;12.10;99.90;;;;;;5033872;28;20029;-64
2022/11/03 07:14:21;;;;;;;12.05;2.90;;;12.10;99.90;;;;;;5027274;28;20080;-63
2022/11/03 07:16:50;;;;;;;8.57;1.80;;;12.10;99.90;;;;;;5015714;28;20026;-63
2022/11/03 07:19:27;;;;;;;11.82;2.00;;;12.10;99.90;;;;;;5033329;28;20030;-64
2022/11/03 07:21:59;;;;;;;11.18;2.70;;;12.10;99.90;;;;;;5033267;28;20014;-63
2022/11/03 07:24:33;;;;;;;12.57;2.50;;;12.10;99.90;;;;;;5023956;28;20033;-64
2022/11/03 07:27:12;;;;;;;14.60;4.07;;;12.10;99.90;;;;;;5020896;28;20018;-64
2022/11/03 07:29:38;;;;;;;11.20;2.97;;;12.10;99.90;;;;;;5019288;28;20478;-63
2022/11/03 07:32:14;;;;;;;10.57;2.28;;;12.10;99.90;;;;;;5025939;28;20033;-64
2022/11/03 07:34:39;;;;;;;12.63;3.00;;;12.20;99.90;;;;;;5027082;28;20030;-63
2022/11/03 07:37:14;;;;;;;10.90;2.58;;;12.20;99.90;;;;;;5022066;28;20025;-63
2022/11/03 07:39:40;;;;;;;8.50;2.42;;;12.20;99.90;;;;;;5021340;28;20014;-63
2022/11/03 07:42:17;;;;;;;12.55;2.78;;;12.30;99.90;;;;;;5026158;28;20098;-63
2022/11/03 07:44:42;;;;;;;13.43;2.63;;;12.30;99.90;;;;;;5016841;28;20042;-63
2022/11/03 07:47:14;;;;;;;12.20;2.35;;;12.30;99.90;;;;;;5017530;28;20048;-63
2022/11/03 07:49:41;;;;;;;12.93;3.40;;;12.30;99.90;;;;;;5017134;28;20024;-63
2022/11/03 07:52:14;;;;;;;8.45;2.25;;;12.30;99.90;;;;;;5025562;28;20034;-64
2022/11/03 07:54:40;;;;;;;18.08;2.55;;;12.40;99.90;;;;;;5022994;28;20017;-64
2022/11/03 07:57:17;;;;;;;12.75;2.72;;;12.40;99.90;;;;;;5022172;28;20395;-63
2022/11/03 07:59:48;;;;;;;10.70;1.98;;;12.50;99.90;;;;;;5023998;28;20505;-63
2022/11/03 08:02:25;;;;;;;8.73;2.13;;;12.50;99.90;;;;;;5029311;28;20030;-63
2022/11/03 08:04:50;;;;;;;9.73;2.08;;;12.50;99.90;;;;;;5023839;28;20026;-63
2022/11/03 08:07:16;;;;;;;11.75;2.65;;;12.50;99.90;;;;;;5032311;28;20083;-63
2022/11/03 08:09:41;;;;;;;8.52;2.35;;;12.60;99.90;;;;;;5020558;28;20021;-63
2022/11/03 08:12:07;;;;;;;8.20;1.95;;;12.60;99.90;;;;;;5029237;28;20147;-63
2022/11/03 08:14:32;;;;;;;13.85;2.28;;;12.60;99.90;;;;;;5032487;28;20458;-63
2022/11/03 08:16:58;;;;;;;11.85;2.50;;;12.70;99.90;;;;;;5031170;28;20469;-63
2022/11/03 08:19:24;;;;;;;14.50;2.58;;;12.70;99.90;;;;;;5029443;28;20037;-64
2022/11/03 08:21:49;;;;;;;11.60;2.63;;;12.70;99.90;;;;;;5031211;28;20393;-63
2022/11/03 08:24:15;;;;;;;10.52;2.33;;;12.80;99.90;;;;;;5016683;28;20100;-63
2022/11/03 08:26:40;;;;;;;15.75;3.00;;;12.80;99.90;;;;;;5025103;28;20021;-63
2022/11/03 08:29:06;;;;;;;10.02;2.47;;;12.80;99.90;;;;;;5018455;28;20104;-64
2022/11/03 08:31:31;;;;;;;12.55;2.65;;;12.80;99.90;;;;;;5019156;28;20049;-63
2022/11/03 08:33:57;;;;;;;11.40;2.22;;;12.90;99.90;;;;;;5023932;28;20044;-64
2022/11/03 08:36:22;;;;;;;17.23;3.90;;;12.90;99.90;;;;;;5024904;28;20038;-63
2022/11/03 08:38:48;;;;;;;12.90;2.90;;;12.90;99.90;;;;;;5020020;28;20030;-63
2022/11/03 08:41:13;;;;;;;10.05;2.90;;;12.90;99.90;;;;;;5020522;28;20493;-63
2022/11/03 08:43:39;;;;;;;10.73;2.30;;;13.00;99.90;;;;;;5025044;28;20485;-63
2022/11/03 08:46:04;;;;;;;11.35;2.53;;;13.00;99.90;;;;;;5019732;28;20038;-63
2022/11/03 08:48:30;;;;;;;9.02;2.15;;;13.00;99.90;;;;;;5019443;28;20038;-63
2022/11/03 08:50:55;;;;;;;10.50;2.60;;;13.10;99.90;;;;;;5017340;28;20026;-64
2022/11/03 08:53:23;;;;;;;10.65;2.33;;;13.10;99.90;;;;;;5017771;28;20033;-64
2022/11/03 08:55:49;;;;;;;6.78;2.05;;;13.20;99.90;;;;;;5017973;28;20038;-63
2022/11/03 08:58:15;;;;;;;10.52;2.08;;;13.20;99.90;;;;;;5021626;28;20037;-63
2022/11/03 09:00:40;;;;;;;12.88;3.10;;;13.30;99.90;;;;;;5023408;28;20100;-63
2022/11/03 09:03:06;;;;;;;10.80;2.42;;;13.30;99.90;;;;;;5022349;28;20017;-64
2022/11/03 09:05:31;;;;;;;10.75;2.88;;;13.30;99.90;;;;;;5016541;28;20049;-64
2022/11/03 09:07:57;;;;;;;10.30;2.15;;;13.30;99.90;;;;;;5019836;28;20029;-63
2022/11/03 09:10:22;;;;;;;9.88;2.80;;;13.30;99.90;;;;;;5023276;28;20025;-64
2022/11/03 09:12:48;;;;;;;7.05;2.25;;;13.40;99.90;;;;;;5030359;28;20026;-64
2022/11/03 09:15:13;;;;;;;14.00;2.47;;;13.40;99.90;;;;;;5049577;28;20394;-63
2022/11/03 09:17:39;;;;;;;11.68;2.35;;;13.40;99.90;;;;;;5034271;28;20496;-64
2022/11/03 09:20:05;;;;;;;9.65;2.53;;;13.50;99.90;;;;;;5033030;28;20048;-64
2022/11/03 09:22:31;;;;;;;12.70;2.30;;;13.50;99.90;;;;;;5033782;28;20075;-63
2022/11/03 09:24:57;;;;;;;10.80;2.58;;;13.50;99.80;;;;;;5033548;28;20441;-63
2022/11/03 09:27:23;;;;;;;9.60;2.42;;;13.60;99.70;;;;;;5035687;28;20075;-63
2022/11/03 09:29:48;;;;;;;13.23;2.40;;;13.60;99.70;;;;;;5033310;28;20075;-64
2022/11/03 09:32:14;;;;;;;11.00;2.85;;;13.70;99.20;;;;;;5035467;28;20028;-63
2022/11/03 09:34:40;;;;;;;7.53;2.40;;;13.80;99.00;;;;;;5031745;28;20084;-63
2022/11/03 09:37:06;;;;;;;6.60;2.22;;;13.80;99.10;;;;;;5033024;28;20052;-64
2022/11/03 09:39:32;;;;;;;7.53;2.35;;;13.90;98.70;;;;;;5029177;28;20437;-64
2022/11/03 09:41:59;;;;;;;10.43;2.80;;;14.00;98.90;;;;;;5018737;28;20044;-63
2022/11/03 09:44:24;;;;;;;8.63;2.70;;;14.00;98.60;;;;;;5026788;28;20389;-63
2022/11/03 09:46:50;;;;;;;8.50;2.38;;;14.10;98.60;;;;;;5022048;28;20045;-64
2022/11/03 09:49:17;;;;;;;8.73;2.47;;;14.10;98.40;;;;;;5025451;28;20025;-64
2022/11/03 09:51:44;;;;;;;12.65;3.00;;;14.10;98.40;;;;;;5025141;28;20060;-63
2022/11/03 09:54:13;;;;;;;9.50;2.60;;;14.10;98.40;;;;;;5026685;28;20017;-63
2022/11/03 09:56:39;;;;;;;;;;;14.10;98.10;;;;;;5024904;28;20025;-64
2022/11/03 09:59:20;;;;;;;9.98;2.45;;;14.00;97.80;;;;;;5019673;28;19909;-63
2022/11/03 10:01:48;;;;;;;9.63;3.00;;;14.00;97.80;;;;;;5016580;28;20030;-63
2022/11/03 10:04:16;;;;;;;12.77;2.72;;;14.00;98.10;;;;;;5022675;28;20044;-63
2022/11/03 10:06:41;;;;;;;12.55;2.88;;;14.00;98.10;;;;;;5045107;28;20369;-64
2022/11/03 10:09:13;;;;;;;12.60;2.63;;;14.00;97.70;;;;;;5027701;28;20466;-63
2022/11/03 10:11:43;;;;;;;13.45;2.65;;;13.90;97.90;;;;;;5024064;28;20026;-63
2022/11/03 10:14:12;;;;;;;11.27;3.20;;;13.90;97.80;;;;;;5032552;28;20025;-63
2022/11/03 10:16:39;;;;;;;10.45;2.63;;;13.90;98.10;;;;;;5041168;28;20034;-63
2022/11/03 10:19:11;;;;;;;9.15;2.30;;;13.90;98.30;;;;;;5034374;28;20013;-63
2022/11/03 10:21:39;;;;;;;13.93;2.92;;;13.90;98.20;;;;;;5033921;28;20501;-64
2022/11/03 10:24:04;;;;;;;10.85;3.15;;;13.90;98.30;;;;;;5022165;28;20032;-63
2022/11/03 10:26:52;;;;;;;7.18;2.42;;;13.90;97.90;;;;;;5032885;28;20062;-63
2022/11/03 10:29:24;;;;;;;10.70;2.65;;;13.90;98.00;;;;;;5034758;28;20029;-63
2022/11/03 10:31:52;;;;;;;9.13;3.13;;;13.90;98.00;;;;;;5034135;28;20017;-63
2022/11/03 10:34:23;;;;;;;9.93;2.55;;;13.80;98.00;;;;;;5034117;28;20430;-63
2022/11/03 10:36:49;;;;;;;9.23;2.30;;;13.90;98.20;;;;;;5033929;28;20029;-63
2022/11/03 10:39:32;;;;;;;9.10;2.70;;;13.90;98.30;;;;;;5033637;28;20041;-63
2022/11/03 10:41:58;;;;;;;12.27;3.42;;;13.90;97.90;;;;;;5023882;28;20018;-63
2022/11/03 10:44:27;;;;;;;8.23;2.53;;;13.90;98.20;;;;;;5032998;28;20029;-63
2022/11/03 10:47:05;;;;;;;8.60;2.33;;;13.90;97.80;;;;;;5034142;28;20474;-64
2022/11/03 10:49:34;;;;;;;11.48;2.55;;;13.90;97.60;;;;;;5034001;28;20519;-64
2022/11/03 10:52:19;;;;;;;11.13;2.85;;;13.90;97.60;;;;;;5023921;28;20467;-63
2022/11/03 10:54:46;;;;;;;9.50;2.70;;;13.90;97.60;;;;;;5031389;28;20025;-63
2022/11/03 10:57:13;;;;;;;6.18;1.92;;;13.90;97.30;;;;;;5025286;28;20021;-63
2022/11/03 10:59:39;;;;;;;8.55;2.90;;;14.00;97.50;;;;;;5020664;28;20406;-63
2022/11/03 11:02:19;;;;;;;10.15;2.42;;;14.00;97.10;;;;;;5015363;28;20109;-63
2022/11/03 11:04:47;;;;;;;10.50;2.53;;;14.10;97.00;;;;;;5020866;28;20095;-64
2022/11/03 11:07:24;;;;;;;7.50;2.10;;;14.10;96.80;;;;;;5031850;28;20013;-64
2022/11/03 11:09:50;;;;;;;11.25;3.03;;;14.30;96.50;;;;;;5033970;28;20022;-63
2022/11/03 11:12:20;;;;;;;6.93;1.95;;;14.60;96.70;;;;;;5024878;28;20087;-63
2022/11/03 11:14:51;;;;;;;;;;;14.80;95.60;;;;;;5034131;28;20028;-63
2022/11/03 11:17:48;;;;;;;8.52;1.88;;;14.80;95.90;;;;;;5033594;28;20380;-63
2022/11/03 11:20:17;;;;;;;7.80;2.72;;;14.80;95.40;;;;;;5033339;28;20023;-64
2022/11/03 11:22:44;;;;;;;8.77;2.60;;;14.70;95.20;;;;;;5033336;28;20033;-63
2022/11/03 11:25:09;;;;;;;8.60;2.53;;;14.70;95.40;;;;;;5028957;28;20100;-63
2022/11/03 11:27:35;;;;;;;8.30;2.33;;;14.60;95.30;;;;;;5018322;28;20484;-63
2022/11/03 11:30:03;;;;;;;6.40;2.10;;;14.50;95.20;;;;;;5027596;28;20389;-63
2022/11/03 11:32:38;;;;;;;8.67;2.80;;;14.60;95.40;;;;;;5023467;28;20017;-63
2022/11/03 11:35:08;;;;;;;7.43;2.38;;;14.70;95.00;;;;;;5031786;28;20033;-63
2022/11/03 11:37:36;;;;;;;9.45;2.35;;;15.10;94.40;;;;;;5032859;28;20025;-63
2022/11/03 11:40:10;;;;;;;7.63;2.33;;;15.30;93.90;;;;;;5033122;28;20098;-63
2022/11/03 11:43:01;;;;;;;9.30;2.78;;;15.20;93.70;;;;;;5021174;28;20025;-63
2022/11/03 11:46:04;;;;;;;8.00;1.65;;;15.20;93.10;;;;;;5014568;28;20502;-63
2022/11/03 11:48:30;;;;;;;5.55;1.63;;;15.20;93.60;;;;;;5021328;28;20469;-64
2022/11/03 11:51:00;;;;;;;6.25;1.60;;;15.20;92.90;;;;;;5016944;28;20076;-63
2022/11/03 11:53:26;;;;;;;7.00;1.38;;;15.30;92.80;;;;;;5031070;28;20022;-63
2022/11/03 11:55:59;;;;;;;6.82;1.65;;;15.30;92.50;;;;;;5032496;28;20034;-63
2022/11/03 11:58:41;;;;;;;7.07;1.45;;;15.40;92.10;;;;;;5020983;28;20079;-64
2022/11/03 12:01:33;;;;;;;6.70;1.40;;;15.50;92.00;;;;;;5032480;28;20022;-64
2022/11/03 12:04:12;;;;;;;6.60;1.77;;;15.80;91.40;;;;;;5031288;28;20033;-64
2022/11/03 12:06:39;;;;;;;9.75;1.63;;;15.90;91.10;;;;;;5020661;28;20021;-64
2022/11/03 12:09:11;;;;;;;4.00;1.05;;;16.00;90.60;;;;;;5030733;28;20025;-63
2022/11/03 12:11:48;;;;;;;6.35;1.50;;;16.10;90.30;;;;;;5029537;28;20099;-64
2022/11/03 12:14:34;;;;;;;7.68;1.40;;;16.10;90.10;;;;;;5029569;28;20037;-64
2022/11/03 12:17:15;;;;;;;6.18;1.42;;;15.90;88.20;;;;;;5032435;28;20029;-63
2022/11/03 12:19:45;;;;;;;5.40;1.83;;;15.80;89.00;;;;;;5032559;28;20059;-64
2022/11/03 12:22:31;;;;;;;7.97;1.77;;;15.80;89.60;;;;;;5032238;28;20025;-64
2022/11/03 12:25:05;;;;;;;6.50;2.05;;;15.80;89.90;;;;;;5031487;28;20029;-64
2022/11/03 12:27:32;;;;;;;5.03;1.73;;;15.80;90.10;;;;;;5031828;28;20029;-63
2022/11/03 12:30:05;;;;;;;3.83;1.70;;;15.80;89.80;;;;;;5031785;28;20265;-64
2022/11/03 12:32:31;;;;;;;7.97;1.52;;;15.90;89.80;;;;;;5032050;28;20040;-64
2022/11/03 12:34:57;;;;;;;6.60;1.75;;;15.90;89.80;;;;;;5031695;28;20029;-63
2022/11/03 12:37:22;;;;;;;4.78;1.60;;;16.00;89.10;;;;;;5032545;28;20034;-63
2022/11/03 12:39:48;;;;;;;6.35;1.88;;;15.90;89.50;;;;;;5031998;28;20473;-64
2022/11/03 12:42:13;;;;;;;5.63;1.55;;;16.00;89.60;;;;;;5032511;28;20063;-64
2022/11/03 12:44:39;;;;;;;9.27;2.00;;;16.00;90.10;;;;;;5034061;28;20478;-63
2022/11/03 12:47:04;;;;;;;6.25;1.80;;;16.00;90.20;;;;;;5036321;28;20033;-63
2022/11/03 12:49:30;;;;;;;5.35;1.65;;;16.10;88.50;;;;;;5034868;28;20034;-64
2022/11/03 12:51:58;;;;;;;6.03;2.10;;;16.10;89.90;;;;;;5029031;28;20030;-63
2022/11/03 12:54:24;;;;;;;5.93;1.73;;;16.10;89.80;;;;;;5032361;28;20174;-63
2022/11/03 12:56:52;;;;;;;6.57;1.83;;;16.20;89.30;;;;;;5024598;28;20030;-64
2022/11/03 12:59:17;;;;;;;8.27;1.88;;;16.30;88.70;;;;;;5034638;28;20104;-64
2022/11/03 13:01:43;;;;;;;6.68;1.63;;;16.30;87.90;;;;;;5028015;28;20114;-64
2022/11/03 13:04:08;;;;;;;9.55;2.33;;;16.40;86.00;;;;;;5022968;28;20539;-64
2022/11/03 13:06:34;;;;;;;9.63;1.80;;;16.50;87.60;;;;;;5028662;28;20017;-64
2022/11/03 13:08:59;;;;;;;6.07;1.90;;;16.60;85.60;;;;;;5025366;28;20075;-64
2022/11/03 13:14:09;;;;;;;9.27;1.88;;;17.20;85.10;;;;;;5034007;28;20041;-64